Time;durP1;ratioP1;P1;durP2;ratioP2;P2;SDS_P1;SDS_P2;PMS_P1;PMS_P2;Temp;Humidity;BMP_temperature;BMP_pressure;BME280_temperature;BME280_humidity;BME280_pressure;Samples;Min_cycle;Max_cycle;Signal;HPM_P1;HPM_P2
2023/09/10 00:00:43;;;;;;;5.82;5.30;;;18.00;99.90;;;;;;4958606;28;20177;-79
2023/09/10 00:03:08;;;;;;;6.20;5.25;;;18.00;99.90;;;;;;4975407;28;20239;-79
2023/09/10 00:05:34;;;;;;;5.82;5.03;;;17.90;99.90;;;;;;4975858;28;20203;-79
2023/09/10 00:08:03;;;;;;;6.13;5.63;;;17.90;99.90;;;;;;4975256;28;20264;-78
2023/09/10 00:10:29;;;;;;;5.60;5.10;;;17.90;99.90;;;;;;4976135;28;20185;-77
2023/09/10 00:12:54;;;;;;;5.32;4.82;;;17.90;99.90;;;;;;4957832;28;20211;-79
2023/09/10 00:15:20;;;;;;;5.30;4.85;;;17.90;99.90;;;;;;4975620;28;20212;-79
2023/09/10 00:17:45;;;;;;;6.07;5.43;;;17.90;99.90;;;;;;4958010;28;20603;-79
2023/09/10 00:20:11;;;;;;;5.65;5.15;;;17.80;99.90;;;;;;4975602;28;20555;-78
2023/09/10 00:22:42;;;;;;;6.03;5.50;;;17.80;1.00;;;;;;4974768;28;20709;-79
2023/09/10 00:25:09;;;;;;;6.05;5.45;;;17.70;99.90;;;;;;4957565;28;20196;-79
2023/09/10 00:27:34;;;;;;;5.60;5.20;;;17.60;99.90;;;;;;4975284;28;20292;-79
2023/09/10 00:30:00;;;;;;;5.82;5.35;;;17.60;1.00;;;;;;4974984;28;20208;-80
2023/09/10 00:32:26;;;;;;;6.32;5.72;;;17.50;1.00;;;;;;4974928;28;20181;-79
2023/09/10 00:34:51;;;;;;;5.63;5.22;;;17.50;1.00;;;;;;4975105;28;20597;-79
2023/09/10 00:37:17;;;;;;;5.50;5.10;;;17.50;1.00;;;;;;4973993;28;20338;-77
2023/09/10 00:39:43;;;;;;;5.93;5.40;;;17.50;1.00;;;;;;4974315;28;20504;-79
2023/09/10 00:42:09;;;;;;;5.82;5.40;;;17.50;99.90;;;;;;4974716;28;20220;-79
2023/09/10 00:44:36;;;;;;;5.55;5.05;;;17.50;99.90;;;;;;4957380;28;20232;-79
2023/09/10 00:47:03;;;;;;;6.65;5.60;;;17.50;99.90;;;;;;4957599;28;20252;-78
2023/09/10 00:49:30;;;;;;;5.63;5.13;;;17.50;99.90;;;;;;4974992;28;20196;-79
2023/09/10 00:51:57;;;;;;;5.32;4.82;;;17.50;99.90;;;;;;4973745;28;20234;-79
2023/09/10 00:54:24;;;;;;;7.25;5.45;;;17.50;99.90;;;;;;4974928;28;20197;-79
2023/09/10 00:56:50;;;;;;;8.15;5.85;;;17.50;99.90;;;;;;4974272;28;20637;-79
2023/09/10 00:59:16;;;;;;;7.25;5.78;;;17.50;99.90;;;;;;4974450;28;20188;-78
2023/09/10 01:01:42;;;;;;;6.45;5.38;;;17.40;99.90;;;;;;4957000;28;20184;-79
2023/09/10 01:04:07;;;;;;;6.28;5.72;;;17.40;99.90;;;;;;4974071;28;20193;-79
2023/09/10 01:06:34;;;;;;;6.30;5.80;;;17.40;99.90;;;;;;4974538;28;20256;-79
2023/09/10 01:08:59;;;;;;;5.80;5.30;;;17.40;99.90;;;;;;4974502;28;20590;-78
2023/09/10 01:11:37;;;;;;;5.70;5.20;;;17.30;99.90;;;;;;4957041;28;20272;-79
2023/09/10 01:14:31;;;;;;;5.57;5.07;;;17.20;99.90;;;;;;4974132;28;20244;-79
2023/09/10 01:17:22;;;;;;;5.90;5.28;;;17.20;99.90;;;;;;4973665;28;20184;-78
2023/09/10 01:20:27;;;;;;;5.80;5.30;;;17.00;1.00;;;;;;4930376;28;20200;-79
2023/09/10 01:23:07;;;;;;;5.90;5.30;;;17.00;1.00;;;;;;4960383;28;20314;-79
2023/09/10 01:25:33;;;;;;;5.97;5.47;;;17.00;1.00;;;;;;4956544;28;20177;-79
2023/09/10 01:28:04;;;;;;;5.60;5.10;;;17.00;1.00;;;;;;4974121;28;20258;-79
2023/09/10 01:30:31;;;;;;;5.82;5.22;;;17.00;1.00;;;;;;4973814;28;20185;-79
2023/09/10 01:33:03;;;;;;;5.78;5.05;;;17.00;99.90;;;;;;4956358;28;20211;-79
2023/09/10 01:35:39;;;;;;;5.72;5.25;;;17.10;1.00;;;;;;4973575;28;20180;-79
2023/09/10 01:38:16;;;;;;;5.78;5.28;;;17.10;1.00;;;;;;4957188;28;20481;-79
2023/09/10 01:40:56;;;;;;;5.45;4.95;;;17.00;99.90;;;;;;4956536;28;20184;-79
2023/09/10 01:43:22;;;;;;;5.75;5.20;;;17.10;99.90;;;;;;4973038;28;20208;-79
2023/09/10 01:45:49;;;;;;;5.65;5.15;;;17.10;99.90;;;;;;4974278;28;20193;-78
2023/09/10 01:48:15;;;;;;;5.78;5.18;;;17.20;99.90;;;;;;4974123;28;20208;-78
2023/09/10 01:50:41;;;;;;;5.80;5.30;;;17.10;99.90;;;;;;4974206;28;20185;-79
2023/09/10 01:53:06;;;;;;;5.60;5.10;;;17.00;99.90;;;;;;4973326;28;20276;-79
2023/09/10 01:55:32;;;;;;;5.57;5.07;;;17.10;99.90;;;;;;4974032;28;20212;-79
2023/09/10 01:57:58;;;;;;;5.55;5.00;;;17.10;99.90;;;;;;4973766;28;20227;-79
2023/09/10 02:00:24;;;;;;;5.40;4.90;;;17.00;99.90;;;;;;4956589;28;20303;-79
2023/09/10 02:02:50;;;;;;;5.07;4.63;;;17.00;99.90;;;;;;4973945;28;20243;-79
2023/09/10 02:05:16;;;;;;;5.45;4.95;;;17.00;99.90;;;;;;4956396;28;20197;-79
2023/09/10 02:07:41;;;;;;;5.35;4.85;;;17.10;99.90;;;;;;4973502;28;20223;-79
2023/09/10 02:10:07;;;;;;;5.72;5.20;;;17.00;99.90;;;;;;4976593;28;20688;-79
2023/09/10 02:12:36;;;;;;;5.63;5.10;;;17.00;99.90;;;;;;4960121;28;20195;-78
2023/09/10 02:15:05;;;;;;;5.60;5.10;;;17.00;99.90;;;;;;4977574;28;20180;-79
2023/09/10 02:17:31;;;;;;;5.65;5.15;;;17.00;99.90;;;;;;4977669;28;20185;-79
2023/09/10 02:19:57;;;;;;;5.53;5.03;;;17.00;99.90;;;;;;4977561;28;20188;-79
2023/09/10 02:22:22;;;;;;;5.60;5.10;;;16.90;99.90;;;;;;4976713;28;20184;-79
2023/09/10 02:24:50;;;;;;;5.63;5.13;;;17.00;99.90;;;;;;4959738;28;20192;-78
2023/09/10 02:27:16;;;;;;;5.70;5.20;;;16.90;99.90;;;;;;4977833;28;20201;-78
2023/09/10 02:29:42;;;;;;;6.55;5.10;;;17.00;99.90;;;;;;4977324;28;20181;-78
2023/09/10 02:32:07;;;;;;;5.97;4.35;;;17.00;99.90;;;;;;4976384;28;20232;-77
2023/09/10 02:34:33;;;;;;;5.53;4.75;;;16.90;99.90;;;;;;4959189;28;20200;-78
2023/09/10 02:36:59;;;;;;;5.07;4.60;;;16.80;99.90;;;;;;4975861;28;20197;-79
2023/09/10 02:39:25;;;;;;;5.35;4.85;;;16.80;99.90;;;;;;4974488;28;20586;-77
2023/09/10 02:41:51;;;;;;;5.60;5.10;;;16.90;99.90;;;;;;4973681;28;20196;-78
2023/09/10 02:44:16;;;;;;;5.38;4.88;;;16.70;99.90;;;;;;4976409;28;20325;-79
2023/09/10 02:46:42;;;;;;;5.22;4.55;;;16.80;99.90;;;;;;4977333;28;20177;-79
2023/09/10 02:49:07;;;;;;;6.78;5.05;;;16.80;99.90;;;;;;4976767;28;20208;-79
2023/09/10 02:51:33;;;;;;;5.40;4.75;;;16.80;99.90;;;;;;4977714;28;20336;-78
2023/09/10 02:53:58;;;;;;;5.93;5.32;;;16.80;99.90;;;;;;4976693;28;20219;-78
2023/09/10 02:56:24;;;;;;;4.85;4.45;;;16.80;1.00;;;;;;4977141;28;20320;-78
2023/09/10 02:58:49;;;;;;;5.60;5.10;;;16.80;99.90;;;;;;4977371;28;20811;-79
2023/09/10 03:01:15;;;;;;;5.75;5.10;;;16.90;99.90;;;;;;4977252;28;20192;-79
2023/09/10 03:03:41;;;;;;;5.75;5.20;;;16.80;99.90;;;;;;4959180;28;20552;-78
2023/09/10 03:06:13;;;;;;;5.03;4.60;;;16.80;99.90;;;;;;4976454;28;20196;-79
2023/09/10 03:08:39;;;;;;;5.30;4.80;;;16.70;99.90;;;;;;4976383;28;20232;-79
2023/09/10 03:11:04;;;;;;;5.13;4.57;;;16.70;99.90;;;;;;4959178;28;20185;-77
2023/09/10 03:13:30;;;;;;;5.70;5.28;;;16.60;99.90;;;;;;4976392;28;20486;-79
2023/09/10 03:15:56;;;;;;;5.25;4.80;;;16.60;99.90;;;;;;4975993;28;20193;-79
2023/09/10 03:18:21;;;;;;;5.35;4.85;;;16.50;99.90;;;;;;4976249;28;20189;-78
2023/09/10 03:20:47;;;;;;;4.68;4.28;;;16.60;99.90;;;;;;4976297;28;20193;-79
2023/09/10 03:23:12;;;;;;;5.18;4.70;;;16.30;1.00;;;;;;4976222;28;20778;-79
2023/09/10 03:25:39;;;;;;;4.72;4.32;;;16.40;1.00;;;;;;4976438;28;20790;-79
2023/09/10 03:28:05;;;;;;;5.97;5.10;;;16.50;1.00;;;;;;4976188;28;20263;-79
2023/09/10 03:30:31;;;;;;;5.07;4.68;;;16.60;1.00;;;;;;4958891;28;20177;-79
2023/09/10 03:32:57;;;;;;;5.13;4.72;;;16.60;1.00;;;;;;4975862;28;20201;-78
2023/09/10 03:35:22;;;;;;;5.55;5.00;;;16.50;99.90;;;;;;4975896;28;20241;-79
2023/09/10 03:37:48;;;;;;;5.63;4.85;;;16.60;99.90;;;;;;4976690;28;20196;-78
2023/09/10 03:40:14;;;;;;;5.30;4.80;;;16.50;99.90;;;;;;4976255;28;20625;-79
2023/09/10 03:42:40;;;;;;;5.00;4.60;;;16.50;99.90;;;;;;4976080;28;20205;-77
2023/09/10 03:45:06;;;;;;;5.78;4.88;;;16.50;99.90;;;;;;4958389;28;20201;-79
2023/09/10 03:47:33;;;;;;;6.05;4.68;;;16.60;1.00;;;;;;4975769;28;20205;-79
2023/09/10 03:49:59;;;;;;;5.13;4.72;;;16.50;1.00;;;;;;4958318;28;20181;-78
2023/09/10 03:52:25;;;;;;;5.38;4.88;;;16.50;99.90;;;;;;4976540;28;20204;-78
2023/09/10 03:54:50;;;;;;;5.30;4.90;;;16.50;99.90;;;;;;4977966;28;20192;-79
2023/09/10 03:57:16;;;;;;;5.25;4.85;;;16.50;99.90;;;;;;4977672;28;20196;-80
2023/09/10 03:59:42;;;;;;;5.13;4.63;;;16.50;99.90;;;;;;4959654;28;20253;-78
2023/09/10 04:02:07;;;;;;;5.95;4.95;;;16.40;99.90;;;;;;4976290;28;20203;-79
2023/09/10 04:04:33;;;;;;;5.00;4.50;;;16.40;1.00;;;;;;4977609;28;20256;-80
2023/09/10 04:06:59;;;;;;;5.18;4.72;;;16.40;1.00;;;;;;4959308;28;20193;-79
2023/09/10 04:09:25;;;;;;;4.90;4.50;;;16.40;99.90;;;;;;4977145;28;20173;-80
2023/09/10 04:11:51;;;;;;;5.78;5.28;;;16.40;99.90;;;;;;4977255;28;20689;-79
2023/09/10 04:14:16;;;;;;;5.68;4.70;;;16.40;99.90;;;;;;4976793;28;20203;-78
2023/09/10 04:16:42;;;;;;;5.32;4.63;;;16.40;99.90;;;;;;4976533;28;20237;-78
2023/09/10 04:19:07;;;;;;;5.33;4.83;;;16.40;1.00;;;;;;4957951;28;20914;-78
2023/09/10 04:21:36;;;;;;;5.63;5.10;;;16.40;99.90;;;;;;4976314;28;20181;-79
2023/09/10 04:24:02;;;;;;;5.32;4.82;;;16.40;99.90;;;;;;4976114;28;20224;-80
2023/09/10 04:26:28;;;;;;;5.10;4.70;;;16.40;99.90;;;;;;4976679;28;20232;-80
2023/09/10 04:28:53;;;;;;;5.75;5.22;;;16.40;99.90;;;;;;4959420;28;20205;-78
2023/09/10 04:31:19;;;;;;;5.28;4.78;;;16.30;99.90;;;;;;4976046;28;20180;-80
2023/09/10 04:33:44;;;;;;;5.72;5.10;;;16.40;99.90;;;;;;4976026;28;20225;-79
2023/09/10 04:36:10;;;;;;;5.43;4.70;;;16.40;99.90;;;;;;4976484;28;20181;-80
2023/09/10 04:38:36;;;;;;;5.70;5.20;;;16.30;99.90;;;;;;4977284;28;20181;-79
2023/09/10 04:41:02;;;;;;;6.63;5.40;;;16.40;99.90;;;;;;4976622;28;20268;-80
2023/09/10 04:43:27;;;;;;;5.60;5.03;;;16.30;99.90;;;;;;4977042;28;20598;-80
2023/09/10 04:45:53;;;;;;;5.95;5.43;;;16.30;99.90;;;;;;4977359;28;20591;-79
2023/09/10 04:48:19;;;;;;;5.93;5.07;;;16.20;99.90;;;;;;4977323;28;20212;-78
2023/09/10 04:50:44;;;;;;;7.55;5.65;;;16.30;99.90;;;;;;4977528;28;20181;-80
2023/09/10 04:53:14;;;;;;;5.32;4.88;;;16.30;99.90;;;;;;4975354;28;20208;-79
2023/09/10 04:55:40;;;;;;;5.18;4.78;;;16.20;99.90;;;;;;4977059;28;20177;-79
2023/09/10 04:58:05;;;;;;;6.63;5.10;;;16.30;99.90;;;;;;4960162;28;20265;-80
2023/09/10 05:00:31;;;;;;;6.07;4.70;;;16.30;99.90;;;;;;4977280;28;20193;-80
2023/09/10 05:02:57;;;;;;;5.97;5.38;;;16.40;99.90;;;;;;4976747;28;20220;-79
2023/09/10 05:05:22;;;;;;;5.68;4.97;;;16.40;99.90;;;;;;4960088;28;20189;-80
2023/09/10 05:07:49;;;;;;;5.80;4.80;;;16.40;99.90;;;;;;4977218;28;20209;-80
2023/09/10 05:10:15;;;;;;;7.70;5.07;;;16.40;99.90;;;;;;4976338;28;20196;-80
2023/09/10 05:12:41;;;;;;;5.40;4.90;;;16.40;99.90;;;;;;4976825;28;20193;-80
2023/09/10 05:15:07;;;;;;;5.35;4.85;;;16.50;99.90;;;;;;4958928;28;20676;-80
2023/09/10 05:17:33;;;;;;;5.88;5.28;;;16.50;99.90;;;;;;4959608;28;20184;-80
2023/09/10 05:19:59;;;;;;;8.02;5.15;;;16.50;99.90;;;;;;4959213;28;20185;-78
2023/09/10 05:22:24;;;;;;;5.43;4.70;;;16.50;99.90;;;;;;4959426;28;20185;-80
2023/09/10 05:24:50;;;;;;;5.47;4.97;;;16.40;99.90;;;;;;4951407;28;20192;-79
2023/09/10 05:27:15;;;;;;;5.07;4.60;;;16.60;99.90;;;;;;4959501;28;20677;-78
2023/09/10 05:29:41;;;;;;;5.93;5.32;;;16.50;99.90;;;;;;4976710;28;20187;-80
2023/09/10 05:32:06;;;;;;;5.45;4.80;;;16.70;99.90;;;;;;4975819;28;20196;-79
2023/09/10 05:34:32;;;;;;;5.25;4.78;;;16.70;99.90;;;;;;4959068;28;20343;-78
2023/09/10 05:36:58;;;;;;;6.07;5.47;;;16.70;99.90;;;;;;4959258;28;20196;-80
2023/09/10 05:39:23;;;;;;;5.47;4.97;;;16.80;99.90;;;;;;4976635;28;20183;-79
2023/09/10 05:41:49;;;;;;;5.75;4.43;;;16.70;99.90;;;;;;4976366;28;20180;-80
2023/09/10 05:44:14;;;;;;;5.38;4.88;;;16.80;99.90;;;;;;4975418;28;20220;-80
2023/09/10 05:46:40;;;;;;;6.03;5.47;;;16.80;99.90;;;;;;4958522;28;20593;-78
2023/09/10 05:49:06;;;;;;;5.55;4.88;;;16.80;99.90;;;;;;4976282;28;20217;-80
2023/09/10 05:51:31;;;;;;;6.95;5.00;;;16.90;99.90;;;;;;4976470;28;20548;-80
2023/09/10 05:53:57;;;;;;;6.88;4.95;;;16.90;99.90;;;;;;4974159;28;20200;-77
2023/09/10 05:56:23;;;;;;;5.85;5.35;;;16.90;99.90;;;;;;4973381;28;20691;-79
2023/09/10 05:58:49;;;;;;;5.85;5.25;;;17.00;99.90;;;;;;4974184;28;20806;-79
2023/09/10 06:01:15;;;;;;;5.70;5.20;;;17.00;99.90;;;;;;4972757;28;20224;-78
2023/09/10 06:03:40;;;;;;;5.80;5.30;;;17.10;99.90;;;;;;4970838;28;20201;-78
2023/09/10 06:06:06;;;;;;;5.60;5.10;;;17.10;99.90;;;;;;4973315;28;20287;-78
2023/09/10 06:08:32;;;;;;;6.57;5.43;;;17.10;99.90;;;;;;4974824;28;20216;-79
2023/09/10 06:10:57;;;;;;;5.88;5.28;;;17.20;99.90;;;;;;4974624;28;20184;-79
2023/09/10 06:13:23;;;;;;;7.85;7.18;;;17.20;99.90;;;;;;4972338;28;20208;-78
2023/09/10 06:15:49;;;;;;;7.03;6.32;;;17.10;1.00;;;;;;4953512;28;20189;-79
2023/09/10 06:18:14;;;;;;;9.57;8.73;;;17.10;99.90;;;;;;4971783;28;20588;-78
2023/09/10 06:20:40;;;;;;;6.90;6.30;;;17.20;99.90;;;;;;4972318;28;20200;-77
2023/09/10 06:23:05;;;;;;;7.00;6.35;;;17.30;99.90;;;;;;4970184;28;20774;-78
2023/09/10 06:25:33;;;;;;;6.40;5.80;;;17.30;99.90;;;;;;4969813;28;20272;-78
2023/09/10 06:27:58;;;;;;;6.60;5.88;;;17.30;99.90;;;;;;4970796;28;20292;-78
2023/09/10 06:30:24;;;;;;;6.45;5.63;;;17.40;99.90;;;;;;4970943;28;20618;-78
2023/09/10 06:32:49;;;;;;;7.05;6.13;;;17.50;99.90;;;;;;4970074;28;20215;-78
2023/09/10 06:35:15;;;;;;;7.25;6.65;;;17.60;99.90;;;;;;4953029;28;20221;-78
2023/09/10 06:37:41;;;;;;;7.38;6.28;;;17.60;99.90;;;;;;4953083;28;20189;-78
2023/09/10 06:40:08;;;;;;;8.15;7.40;;;17.60;99.90;;;;;;4972508;28;20608;-78
2023/09/10 06:42:33;;;;;;;7.07;6.47;;;17.70;99.90;;;;;;4953948;28;20181;-78
2023/09/10 06:44:59;;;;;;;7.50;6.80;;;17.70;99.90;;;;;;4970781;28;20240;-78
2023/09/10 06:47:25;;;;;;;9.27;8.30;;;17.80;99.90;;;;;;4970268;28;20284;-77
2023/09/10 06:49:50;;;;;;;9.48;8.40;;;17.90;99.90;;;;;;4952639;28;20255;-78
2023/09/10 06:52:16;;;;;;;6.78;6.20;;;17.90;1.00;;;;;;4953118;28;20233;-78
2023/09/10 06:54:42;;;;;;;7.82;7.00;;;18.00;1.00;;;;;;4956545;28;20221;-80
2023/09/10 06:57:07;;;;;;;8.05;7.30;;;18.20;1.00;;;;;;4976032;28;20287;-78
2023/09/10 06:59:33;;;;;;;7.35;6.65;;;18.40;1.00;;;;;;4976124;28;20177;-78
2023/09/10 07:01:59;;;;;;;7.40;6.65;;;18.50;99.90;;;;;;4977365;28;20216;-77
2023/09/10 07:04:25;;;;;;;6.85;6.25;;;18.50;99.90;;;;;;4976965;28;20200;-78
2023/09/10 07:06:52;;;;;;;7.00;6.30;;;18.60;99.90;;;;;;4977184;28;20177;-77
2023/09/10 07:09:22;;;;;;;8.15;6.80;;;18.60;99.90;;;;;;4976138;28;20409;-79
2023/09/10 07:11:52;;;;;;;8.48;7.57;;;18.70;1.00;;;;;;4976293;28;20532;-80
2023/09/10 07:14:19;;;;;;;8.07;6.78;;;18.80;1.00;;;;;;4958136;28;20224;-78
2023/09/10 07:16:46;;;;;;;7.57;6.80;;;18.90;99.90;;;;;;4976324;28;20205;-80
2023/09/10 07:19:11;;;;;;;7.43;6.13;;;19.10;99.90;;;;;;4959220;28;20185;-77
2023/09/10 07:21:38;;;;;;;8.82;5.97;;;19.10;99.90;;;;;;4958904;28;20324;-78
2023/09/10 07:24:06;;;;;;;6.78;6.20;;;19.30;99.90;;;;;;4958451;28;20225;-78
2023/09/10 07:26:33;;;;;;;6.90;6.20;;;19.30;99.90;;;;;;4976217;28;20181;-80
2023/09/10 07:28:58;;;;;;;8.27;6.82;;;19.40;99.90;;;;;;4975924;28;20201;-77
2023/09/10 07:31:24;;;;;;;8.00;7.05;;;19.60;99.90;;;;;;4975794;28;20187;-77
2023/09/10 07:33:49;;;;;;;10.50;8.73;;;19.70;99.90;;;;;;4975491;28;20837;-78
2023/09/10 07:36:15;;;;;;;11.90;10.80;;;19.90;99.90;;;;;;4976379;28;20660;-77
2023/09/10 07:38:40;;;;;;;11.13;9.98;;;19.90;99.90;;;;;;4975898;28;20194;-78
2023/09/10 07:41:06;;;;;;;13.50;11.40;;;19.90;99.90;;;;;;4975574;28;20193;-78
2023/09/10 07:43:32;;;;;;;12.27;11.18;;;20.10;99.90;;;;;;4975411;28;20616;-78
2023/09/10 07:45:57;;;;;;;13.10;11.57;;;20.20;99.90;;;;;;4957901;28;20197;-78
2023/09/10 07:48:23;;;;;;;12.23;11.00;;;20.40;99.90;;;;;;4975728;28;20209;-77
2023/09/10 07:50:58;;;;;;;14.07;12.65;;;20.40;99.90;;;;;;4975686;28;20220;-78
2023/09/10 07:53:24;;;;;;;13.50;12.20;;;20.60;99.90;;;;;;4957961;28;20211;-79
2023/09/10 07:55:50;;;;;;;13.32;12.13;;;20.70;99.90;;;;;;4976143;28;20209;-79
2023/09/10 07:58:16;;;;;;;13.25;11.90;;;20.70;99.90;;;;;;4958044;28;20884;-78
2023/09/10 08:00:41;;;;;;;12.70;11.50;;;20.90;99.90;;;;;;4975395;28;20562;-79
2023/09/10 08:03:07;;;;;;;13.25;11.93;;;20.90;99.90;;;;;;4974812;28;20212;-78
2023/09/10 08:05:34;;;;;;;11.70;10.55;;;21.10;99.90;;;;;;4975794;28;20185;-77
2023/09/10 08:08:03;;;;;;;11.90;10.80;;;21.10;99.90;;;;;;4974420;28;20207;-77
2023/09/10 08:10:32;;;;;;;13.65;11.70;;;21.20;99.90;;;;;;4975202;28;20538;-78
2023/09/10 08:12:58;;;;;;;11.40;10.13;;;21.30;99.90;;;;;;4975212;28;20201;-78
2023/09/10 08:15:25;;;;;;;12.27;11.00;;;21.30;99.90;;;;;;4975803;28;20204;-79
2023/09/10 08:17:53;;;;;;;12.93;10.10;;;21.40;99.90;;;;;;4976433;28;20195;-79
2023/09/10 08:20:18;;;;;;;11.65;10.45;;;21.50;99.90;;;;;;4975060;28;20196;-78
2023/09/10 08:22:44;;;;;;;10.65;9.65;;;21.50;99.90;;;;;;4958559;28;20222;-78
2023/09/10 08:25:10;;;;;;;9.90;9.00;;;21.60;99.90;;;;;;4975501;28;20244;-78
2023/09/10 08:27:35;;;;;;;11.38;8.80;;;21.70;99.90;;;;;;4975483;28;20660;-79
2023/09/10 08:30:03;;;;;;;11.35;10.30;;;21.80;99.90;;;;;;4972522;28;20661;-78
2023/09/10 08:32:29;;;;;;;10.88;9.70;;;21.80;99.90;;;;;;4973987;28;20184;-77
2023/09/10 08:34:55;;;;;;;8.70;7.80;;;21.90;99.90;;;;;;4974207;28;20184;-79
2023/09/10 08:37:20;;;;;;;10.30;9.20;;;22.00;99.90;;;;;;4974112;28;20313;-78
2023/09/10 08:39:48;;;;;;;9.15;8.25;;;22.00;99.90;;;;;;4974337;28;20555;-79
2023/09/10 08:42:23;;;;;;;11.85;8.57;;;22.00;99.90;;;;;;4956985;28;20196;-79
2023/09/10 08:44:55;;;;;;;10.57;9.30;;;22.30;99.90;;;;;;4973981;28;20185;-77
2023/09/10 08:47:23;;;;;;;9.07;7.82;;;22.30;99.90;;;;;;4957082;28;20209;-78
2023/09/10 08:49:54;;;;;;;13.25;7.82;;;22.50;99.90;;;;;;4956698;28;20191;-78
2023/09/10 08:52:20;;;;;;;10.27;8.35;;;22.60;99.90;;;;;;4973665;28;20181;-78
2023/09/10 08:54:46;;;;;;;8.50;7.60;;;22.80;99.90;;;;;;4974009;28;20208;-78
2023/09/10 08:57:13;;;;;;;12.68;8.23;;;22.60;99.90;;;;;;4973843;28;20220;-77
2023/09/10 08:59:40;;;;;;;8.88;7.97;;;22.80;92.60;;;;;;4974046;28;20187;-78
2023/09/10 09:02:09;;;;;;;9.02;8.20;;;22.90;96.70;;;;;;4973332;28;20228;-78
2023/09/10 09:04:34;;;;;;;8.65;7.38;;;23.00;90.90;;;;;;4973448;28;20644;-78
2023/09/10 09:07:02;;;;;;;9.25;8.35;;;23.10;94.90;;;;;;4972663;28;20264;-78
2023/09/10 09:09:34;;;;;;;10.75;9.00;;;23.20;78.10;;;;;;4955197;28;20187;-78
2023/09/10 09:12:02;;;;;;;9.02;7.63;;;23.30;57.40;;;;;;4955005;28;20181;-78
2023/09/10 09:14:29;;;;;;;11.15;8.68;;;23.50;57.30;;;;;;4974782;28;20554;-78
2023/09/10 09:16:54;;;;;;;13.15;8.93;;;23.60;54.80;;;;;;4973075;28;20192;-78
2023/09/10 09:19:22;;;;;;;9.63;8.43;;;23.70;52.30;;;;;;4974000;28;20177;-78
2023/09/10 09:21:50;;;;;;;9.40;8.60;;;23.90;20.80;;;;;;4973206;28;20695;-79
2023/09/10 09:24:17;;;;;;;10.43;9.43;;;23.90;18.50;;;;;;4955562;28;20217;-78
2023/09/10 09:26:43;;;;;;;11.70;9.25;;;23.90;18.00;;;;;;4973343;28;20184;-78
2023/09/10 09:29:09;;;;;;;11.05;9.38;;;23.90;14.20;;;;;;4973370;28;20216;-78
2023/09/10 09:31:34;;;;;;;10.63;9.52;;;23.90;14.30;;;;;;4973492;28;20662;-78
2023/09/10 09:34:00;;;;;;;11.07;9.60;;;23.90;13.60;;;;;;4955904;28;20205;-78
2023/09/10 09:36:27;;;;;;;10.32;9.32;;;24.00;10.30;;;;;;4956019;28;20719;-78
2023/09/10 09:38:54;;;;;;;10.48;9.65;;;24.00;13.40;;;;;;4972838;28;20185;-77
2023/09/10 09:41:20;;;;;;;10.88;9.77;;;24.10;11.10;;;;;;4972183;28;20189;-78
2023/09/10 09:43:46;;;;;;;12.77;11.48;;;24.20;9.40;;;;;;4971872;28;20223;-78
2023/09/10 09:46:12;;;;;;;14.82;11.10;;;24.20;12.10;;;;;;4954885;28;20184;-78
2023/09/10 09:48:37;;;;;;;12.60;11.35;;;24.30;5.70;;;;;;4955097;28;20200;-78
2023/09/10 09:51:04;;;;;;;12.75;11.50;;;24.20;15.40;;;;;;4954962;28;20189;-78
2023/09/10 09:53:31;;;;;;;11.45;10.32;;;24.60;7.60;;;;;;4971939;28;20207;-78
2023/09/10 09:56:03;;;;;;;10.80;9.70;;;24.60;1.30;;;;;;4955286;28;20272;-78
2023/09/10 09:58:29;;;;;;;11.43;10.32;;;24.70;1.00;;;;;;4972457;28;20240;-78
2023/09/10 10:00:58;;;;;;;11.60;10.43;;;24.70;1.00;;;;;;4971323;28;20191;-78
2023/09/10 10:03:24;;;;;;;11.90;10.55;;;24.80;1.00;;;;;;4970609;28;21012;-78
2023/09/10 10:05:51;;;;;;;11.68;10.63;;;25.00;1.00;;;;;;4954350;28;20220;-78
2023/09/10 10:08:17;;;;;;;11.57;10.48;;;25.00;1.00;;;;;;4971151;28;20220;-78
2023/09/10 10:10:50;;;;;;;11.65;10.65;;;25.10;1.00;;;;;;4971942;28;20181;-78
2023/09/10 10:13:23;;;;;;;11.43;10.40;;;25.20;1.00;;;;;;4953980;28;20212;-78
2023/09/10 10:15:50;;;;;;;12.40;11.25;;;25.20;1.00;;;;;;4953697;28;20599;-78
2023/09/10 10:18:17;;;;;;;11.55;10.55;;;25.50;1.00;;;;;;4971098;28;20213;-78
2023/09/10 10:20:47;;;;;;;11.68;10.48;;;25.50;1.00;;;;;;4971424;28;20189;-78
2023/09/10 10:23:18;;;;;;;11.90;10.80;;;25.40;1.00;;;;;;4970821;28;20734;-78
2023/09/10 10:25:45;;;;;;;12.80;11.07;;;25.50;1.00;;;;;;4971414;28;20731;-78
2023/09/10 10:28:12;;;;;;;11.07;10.07;;;25.40;1.00;;;;;;4953871;28;20308;-79
2023/09/10 10:30:49;;;;;;;11.68;10.18;;;25.10;1.00;;;;;;4973162;28;20184;-78
2023/09/10 10:33:17;;;;;;;12.23;10.80;;;25.10;1.00;;;;;;4956069;28;20561;-79
2023/09/10 10:36:04;;;;;;;13.02;10.57;;;25.30;1.00;;;;;;4974232;28;20657;-80
2023/09/10 10:38:33;;;;;;;11.35;10.25;;;25.30;1.00;;;;;;4974289;28;20298;-79
2023/09/10 10:41:09;;;;;;;10.68;9.75;;;25.30;1.00;;;;;;4956404;28;20284;-79
2023/09/10 10:43:46;;;;;;;11.45;10.05;;;25.50;1.00;;;;;;4956434;28;20630;-78
2023/09/10 10:46:12;;;;;;;11.52;10.43;;;25.60;1.00;;;;;;4956702;28;20192;-78
2023/09/10 10:48:39;;;;;;;13.27;10.63;;;25.60;1.00;;;;;;4956517;28;20208;-78
2023/09/10 10:51:10;;;;;;;11.52;10.30;;;25.70;1.00;;;;;;4973852;28;20877;-78
2023/09/10 10:53:35;;;;;;;11.63;9.63;;;25.70;1.00;;;;;;4974756;28;20255;-79
2023/09/10 10:56:04;;;;;;;12.30;11.02;;;25.80;1.00;;;;;;4962399;28;20197;-79
2023/09/10 10:58:30;;;;;;;11.60;10.45;;;25.90;1.00;;;;;;4974623;28;20200;-79
2023/09/10 11:00:58;;;;;;;11.73;10.40;;;25.90;1.00;;;;;;4971507;28;20189;-78
2023/09/10 11:03:25;;;;;;;10.68;9.13;;;25.70;1.00;;;;;;4954195;28;20205;-79
2023/09/10 11:06:05;;;;;;;10.07;8.73;;;25.70;1.00;;;;;;4972744;28;20201;-78
2023/09/10 11:08:42;;;;;;;10.48;9.35;;;25.80;1.00;;;;;;4957421;28;20212;-80
2023/09/10 11:11:27;;;;;;;12.40;11.25;;;26.00;1.00;;;;;;4974355;28;20192;-78
2023/09/10 11:14:01;;;;;;;11.60;10.50;;;26.00;1.00;;;;;;4957268;28;20197;-78
2023/09/10 11:16:31;;;;;;;12.73;9.82;;;26.20;1.00;;;;;;4975077;28;20177;-78
2023/09/10 11:18:57;;;;;;;10.20;9.30;;;26.30;1.00;;;;;;4973797;28;20567;-80
2023/09/10 11:21:55;;;;;;;11.50;9.27;;;26.30;1.00;;;;;;4956297;28;20279;-78
2023/09/10 11:24:20;;;;;;;10.95;9.82;;;26.40;1.00;;;;;;4974026;28;20276;-78
2023/09/10 11:26:48;;;;;;;10.85;9.88;;;26.40;1.00;;;;;;4957266;28;20585;-76
2023/09/10 11:29:18;;;;;;;11.13;9.95;;;26.60;1.00;;;;;;4974854;28;20283;-78
2023/09/10 11:31:47;;;;;;;11.13;9.68;;;26.40;1.00;;;;;;4973737;28;20183;-78
2023/09/10 11:34:15;;;;;;;12.07;9.65;;;26.40;1.00;;;;;;4974151;28;20272;-78
2023/09/10 11:36:48;;;;;;;10.38;9.35;;;26.30;1.00;;;;;;4956589;28;20177;-78
2023/09/10 11:39:15;;;;;;;10.30;9.30;;;26.30;1.00;;;;;;4973260;28;20189;-78
2023/09/10 11:41:49;;;;;;;9.18;8.48;;;26.50;1.00;;;;;;4972614;28;20240;-76
2023/09/10 11:44:15;;;;;;;9.38;8.48;;;26.60;1.00;;;;;;4959673;28;20200;-77
2023/09/10 11:46:41;;;;;;;10.00;9.13;;;26.70;1.00;;;;;;4976436;28;20747;-77
2023/09/10 11:49:07;;;;;;;10.57;8.55;;;26.70;1.00;;;;;;4975904;28;20691;-79
2023/09/10 11:51:40;;;;;;;9.38;8.13;;;26.70;1.00;;;;;;4974056;28;20214;-78
2023/09/10 11:54:06;;;;;;;11.10;8.80;;;27.00;1.00;;;;;;4972703;28;20569;-78
2023/09/10 11:56:33;;;;;;;13.00;9.07;;;27.00;1.00;;;;;;4955601;28;20177;-78
2023/09/10 11:58:59;;;;;;;9.52;8.50;;;27.00;1.00;;;;;;4972951;28;20275;-78
2023/09/10 12:01:24;;;;;;;10.88;9.05;;;27.00;1.00;;;;;;4973094;28;20189;-78
2023/09/10 12:03:50;;;;;;;10.98;9.48;;;27.10;1.00;;;;;;4955254;28;20216;-79
2023/09/10 12:06:16;;;;;;;9.93;8.98;;;27.10;1.00;;;;;;4972422;28;20845;-79
2023/09/10 12:08:43;;;;;;;13.18;9.10;;;27.00;1.00;;;;;;4956340;28;20571;-79
2023/09/10 12:11:10;;;;;;;9.77;8.88;;;27.00;1.00;;;;;;4957882;28;20653;-78
2023/09/10 12:13:36;;;;;;;9.43;8.60;;;27.00;1.00;;;;;;4956704;28;20213;-78
2023/09/10 12:16:03;;;;;;;10.45;8.75;;;26.90;1.00;;;;;;4974818;28;20691;-78
2023/09/10 12:18:29;;;;;;;11.52;8.40;;;27.00;1.00;;;;;;4957320;28;20192;-79
2023/09/10 12:20:58;;;;;;;9.68;8.60;;;27.00;1.00;;;;;;4974388;28;20185;-79
2023/09/10 12:23:24;;;;;;;9.73;8.55;;;27.10;1.00;;;;;;4956444;28;20227;-79
2023/09/10 12:25:57;;;;;;;13.63;8.75;;;27.20;1.00;;;;;;4975558;28;20701;-81
2023/09/10 12:28:23;;;;;;;11.00;9.07;;;27.10;1.00;;;;;;4974407;28;20216;-80
2023/09/10 12:30:50;;;;;;;10.13;8.77;;;27.00;1.00;;;;;;4974539;28;20547;-79
2023/09/10 12:33:20;;;;;;;9.90;8.43;;;26.90;1.00;;;;;;4973765;28;20776;-78
2023/09/10 12:35:46;;;;;;;12.05;9.05;;;26.80;1.00;;;;;;4974119;28;20236;-79
2023/09/10 12:38:17;;;;;;;9.57;8.65;;;26.70;1.00;;;;;;4956860;28;20185;-78
2023/09/10 12:40:44;;;;;;;10.65;8.80;;;26.60;1.00;;;;;;4956563;28;20827;-78
2023/09/10 12:43:10;;;;;;;10.52;8.57;;;26.80;1.00;;;;;;4973218;28;20295;-78
2023/09/10 12:45:36;;;;;;;10.48;9.40;;;26.80;1.00;;;;;;4973989;28;20875;-80